sensor_id;sensor_type;location;lat;lon;timestamp;temperature;humidity
10095;DHT22;5086;50.830;7.102;2023-08-06T00:01:53;15.90;99.90
10095;DHT22;5086;50.830;7.102;2023-08-06T00:04:20;15.90;99.90
10095;DHT22;5086;50.830;7.102;2023-08-06T00:06:49;15.80;99.90
10095;DHT22;5086;50.830;7.102;2023-08-06T00:09:15;15.80;99.90
10095;DHT22;5086;50.830;7.102;2023-08-06T00:11:42;15.70;99.90
10095;DHT22;5086;50.830;7.102;2023-08-06T00:14:12;15.70;99.90
10095;DHT22;5086;50.830;7.102;2023-08-06T00:16:42;15.70;99.90
10095;DHT22;5086;50.830;7.102;2023-08-06T00:19:09;15.70;99.90
10095;DHT22;5086;50.830;7.102;2023-08-06T00:21:36;15.60;99.90
10095;DHT22;5086;50.830;7.102;2023-08-06T00:24:04;15.70;99.90
10095;DHT22;5086;50.830;7.102;2023-08-06T00:26:31;15.60;99.90
10095;DHT22;5086;50.830;7.102;2023-08-06T00:28:58;15.60;99.90
10095;DHT22;5086;50.830;7.102;2023-08-06T00:31:25;15.60;99.90
10095;DHT22;5086;50.830;7.102;2023-08-06T00:33:52;15.50;99.90
10095;DHT22;5086;50.830;7.102;2023-08-06T00:36:19;15.50;99.90
10095;DHT22;5086;50.830;7.102;2023-08-06T00:38:45;15.40;99.90
10095;DHT22;5086;50.830;7.102;2023-08-06T00:41:14;15.40;99.90
10095;DHT22;5086;50.830;7.102;2023-08-06T00:43:41;15.40;99.90
10095;DHT22;5086;50.830;7.102;2023-08-06T00:46:08;15.40;99.90
10095;DHT22;5086;50.830;7.102;2023-08-06T00:48:34;15.30;99.90
10095;DHT22;5086;50.830;7.102;2023-08-06T00:51:02;15.40;99.90
10095;DHT22;5086;50.830;7.102;2023-08-06T00:53:29;15.40;99.90
10095;DHT22;5086;50.830;7.102;2023-08-06T00:55:56;15.40;99.90
10095;DHT22;5086;50.830;7.102;2023-08-06T00:58:25;15.40;99.90
10095;DHT22;5086;50.830;7.102;2023-08-06T01:00:52;15.40;99.90
10095;DHT22;5086;50.830;7.102;2023-08-06T01:03:19;15.40;99.90
10095;DHT22;5086;50.830;7.102;2023-08-06T01:05:45;15.40;99.90
10095;DHT22;5086;50.830;7.102;2023-08-06T01:08:22;15.40;99.90
10095;DHT22;5086;50.830;7.102;2023-08-06T01:11:02;15.40;99.90
10095;DHT22;5086;50.830;7.102;2023-08-06T01:13:41;15.40;99.90
10095;DHT22;5086;50.830;7.102;2023-08-06T01:16:09;15.50;99.90
10095;DHT22;5086;50.830;7.102;2023-08-06T01:18:36;15.50;99.90
10095;DHT22;5086;50.830;7.102;2023-08-06T01:21:06;15.50;99.90
10095;DHT22;5086;50.830;7.102;2023-08-06T01:23:33;15.50;99.90
10095;DHT22;5086;50.830;7.102;2023-08-06T01:26:09;15.50;99.90
10095;DHT22;5086;50.830;7.102;2023-08-06T01:28:42;15.50;99.90
10095;DHT22;5086;50.830;7.102;2023-08-06T01:31:15;15.50;99.90
10095;DHT22;5086;50.830;7.102;2023-08-06T01:33:49;15.50;99.90
10095;DHT22;5086;50.830;7.102;2023-08-06T01:36:19;15.50;99.90
10095;DHT22;5086;50.830;7.102;2023-08-06T01:38:47;15.50;99.90
10095;DHT22;5086;50.830;7.102;2023-08-06T01:41:14;15.50;99.90
10095;DHT22;5086;50.830;7.102;2023-08-06T01:43:40;15.50;99.90
10095;DHT22;5086;50.830;7.102;2023-08-06T01:46:07;15.40;99.90
10095;DHT22;5086;50.830;7.102;2023-08-06T01:48:35;15.40;99.90
10095;DHT22;5086;50.830;7.102;2023-08-06T01:51:04;15.40;99.90
10095;DHT22;5086;50.830;7.102;2023-08-06T01:53:33;15.40;99.90
10095;DHT22;5086;50.830;7.102;2023-08-06T01:55:59;15.40;99.90
10095;DHT22;5086;50.830;7.102;2023-08-06T01:58:26;15.40;99.90
10095;DHT22;5086;50.830;7.102;2023-08-06T02:00:53;15.40;99.90
10095;DHT22;5086;50.830;7.102;2023-08-06T02:03:20;15.40;99.90
10095;DHT22;5086;50.830;7.102;2023-08-06T02:05:47;15.40;99.90
10095;DHT22;5086;50.830;7.102;2023-08-06T02:08:13;15.40;99.90
10095;DHT22;5086;50.830;7.102;2023-08-06T02:10:42;15.40;99.90
10095;DHT22;5086;50.830;7.102;2023-08-06T02:13:08;15.40;99.90
10095;DHT22;5086;50.830;7.102;2023-08-06T02:15:35;15.40;99.90
10095;DHT22;5086;50.830;7.102;2023-08-06T02:18:02;15.40;99.90
10095;DHT22;5086;50.830;7.102;2023-08-06T02:20:29;15.40;99.90
10095;DHT22;5086;50.830;7.102;2023-08-06T02:22:56;15.40;99.90
10095;DHT22;5086;50.830;7.102;2023-08-06T02:25:24;15.40;99.90
10095;DHT22;5086;50.830;7.102;2023-08-06T02:27:52;15.40;99.90
10095;DHT22;5086;50.830;7.102;2023-08-06T02:30:19;15.40;99.90
10095;DHT22;5086;50.830;7.102;2023-08-06T02:32:46;15.40;99.90
10095;DHT22;5086;50.830;7.102;2023-08-06T02:35:12;15.30;99.90
10095;DHT22;5086;50.830;7.102;2023-08-06T02:37:39;15.40;99.90
10095;DHT22;5086;50.830;7.102;2023-08-06T02:40:07;15.40;99.90
10095;DHT22;5086;50.830;7.102;2023-08-06T02:42:38;15.30;99.90
10095;DHT22;5086;50.830;7.102;2023-08-06T02:45:11;15.40;99.90
10095;DHT22;5086;50.830;7.102;2023-08-06T02:47:37;15.40;99.90
10095;DHT22;5086;50.830;7.102;2023-08-06T02:50:05;15.30;99.90
10095;DHT22;5086;50.830;7.102;2023-08-06T02:52:32;15.40;99.90
10095;DHT22;5086;50.830;7.102;2023-08-06T02:54:59;15.30;99.90
10095;DHT22;5086;50.830;7.102;2023-08-06T02:57:26;15.30;99.90
10095;DHT22;5086;50.830;7.102;2023-08-06T02:59:53;15.30;99.90
10095;DHT22;5086;50.830;7.102;2023-08-06T03:02:21;15.30;99.90
10095;DHT22;5086;50.830;7.102;2023-08-06T03:04:48;15.30;99.90
10095;DHT22;5086;50.830;7.102;2023-08-06T03:07:15;15.40;99.90
10095;DHT22;5086;50.830;7.102;2023-08-06T03:09:42;15.40;99.90
10095;DHT22;5086;50.830;7.102;2023-08-06T03:12:09;15.30;99.90
10095;DHT22;5086;50.830;7.102;2023-08-06T03:14:35;15.30;99.90
10095;DHT22;5086;50.830;7.102;2023-08-06T03:17:02;15.30;99.90
10095;DHT22;5086;50.830;7.102;2023-08-06T03:19:31;15.30;99.90
10095;DHT22;5086;50.830;7.102;2023-08-06T03:21:57;15.30;99.90
10095;DHT22;5086;50.830;7.102;2023-08-06T03:24:24;15.30;99.90
10095;DHT22;5086;50.830;7.102;2023-08-06T03:26:51;15.30;99.90
10095;DHT22;5086;50.830;7.102;2023-08-06T03:29:18;15.30;99.90
10095;DHT22;5086;50.830;7.102;2023-08-06T03:31:44;15.20;99.90
10095;DHT22;5086;50.830;7.102;2023-08-06T03:34:11;15.20;99.90
10095;DHT22;5086;50.830;7.102;2023-08-06T03:36:39;15.20;99.90
10095;DHT22;5086;50.830;7.102;2023-08-06T03:39:06;15.20;99.90
10095;DHT22;5086;50.830;7.102;2023-08-06T03:41:33;15.20;99.90
10095;DHT22;5086;50.830;7.102;2023-08-06T03:44:00;15.20;99.90
10095;DHT22;5086;50.830;7.102;2023-08-06T03:46:29;15.20;99.90
10095;DHT22;5086;50.830;7.102;2023-08-06T03:48:57;15.20;99.90
10095;DHT22;5086;50.830;7.102;2023-08-06T03:51:24;15.20;99.90
10095;DHT22;5086;50.830;7.102;2023-08-06T03:53:52;15.20;99.90
10095;DHT22;5086;50.830;7.102;2023-08-06T03:56:19;15.20;99.90
10095;DHT22;5086;50.830;7.102;2023-08-06T03:58:47;15.20;99.90
10095;DHT22;5086;50.830;7.102;2023-08-06T04:01:14;15.20;99.90
10095;DHT22;5086;50.830;7.102;2023-08-06T04:03:41;15.20;99.90
10095;DHT22;5086;50.830;7.102;2023-08-06T04:06:08;15.20;99.90
10095;DHT22;5086;50.830;7.102;2023-08-06T04:08:35;15.20;99.90
10095;DHT22;5086;50.830;7.102;2023-08-06T04:11:03;15.20;99.90
10095;DHT22;5086;50.830;7.102;2023-08-06T04:13:30;15.20;99.90
10095;DHT22;5086;50.830;7.102;2023-08-06T04:16:01;15.20;99.90
10095;DHT22;5086;50.830;7.102;2023-08-06T04:18:27;15.20;99.90
10095;DHT22;5086;50.830;7.102;2023-08-06T04:20:54;15.20;99.90
10095;DHT22;5086;50.830;7.102;2023-08-06T04:23:22;15.10;99.90
10095;DHT22;5086;50.830;7.102;2023-08-06T04:25:49;15.10;99.90
10095;DHT22;5086;50.830;7.102;2023-08-06T04:28:19;15.10;99.90
10095;DHT22;5086;50.830;7.102;2023-08-06T04:30:45;15.10;99.90
10095;DHT22;5086;50.830;7.102;2023-08-06T04:33:12;15.10;99.90
10095;DHT22;5086;50.830;7.102;2023-08-06T04:35:39;15.10;99.90
10095;DHT22;5086;50.830;7.102;2023-08-06T04:38:06;15.10;99.90
10095;DHT22;5086;50.830;7.102;2023-08-06T04:40:33;15.20;99.90
10095;DHT22;5086;50.830;7.102;2023-08-06T04:43:00;15.10;99.90
10095;DHT22;5086;50.830;7.102;2023-08-06T04:45:28;15.10;99.90
10095;DHT22;5086;50.830;7.102;2023-08-06T04:47:55;15.20;99.90
10095;DHT22;5086;50.830;7.102;2023-08-06T04:50:22;15.20;99.90
10095;DHT22;5086;50.830;7.102;2023-08-06T04:52:49;15.20;99.90
10095;DHT22;5086;50.830;7.102;2023-08-06T04:55:16;15.20;99.90
10095;DHT22;5086;50.830;7.102;2023-08-06T04:57:42;15.20;99.90
10095;DHT22;5086;50.830;7.102;2023-08-06T05:00:10;15.20;99.90
10095;DHT22;5086;50.830;7.102;2023-08-06T05:02:38;15.20;99.90
10095;DHT22;5086;50.830;7.102;2023-08-06T05:05:05;15.20;99.90
10095;DHT22;5086;50.830;7.102;2023-08-06T05:07:32;15.20;99.90
10095;DHT22;5086;50.830;7.102;2023-08-06T05:09:59;15.20;99.90
10095;DHT22;5086;50.830;7.102;2023-08-06T05:12:26;15.20;99.90
10095;DHT22;5086;50.830;7.102;2023-08-06T05:14:52;15.30;99.90
10095;DHT22;5086;50.830;7.102;2023-08-06T05:17:19;15.30;99.90
10095;DHT22;5086;50.830;7.102;2023-08-06T05:19:49;15.40;99.90
10095;DHT22;5086;50.830;7.102;2023-08-06T05:22:16;15.40;99.90
10095;DHT22;5086;50.830;7.102;2023-08-06T05:24:43;15.40;99.90
10095;DHT22;5086;50.830;7.102;2023-08-06T05:27:10;15.50;99.90
10095;DHT22;5086;50.830;7.102;2023-08-06T05:29:36;15.50;99.90
10095;DHT22;5086;50.830;7.102;2023-08-06T05:32:04;15.50;99.90
10095;DHT22;5086;50.830;7.102;2023-08-06T05:34:31;15.50;99.90
10095;DHT22;5086;50.830;7.102;2023-08-06T05:36:59;15.50;99.90
10095;DHT22;5086;50.830;7.102;2023-08-06T05:39:26;15.60;99.90
10095;DHT22;5086;50.830;7.102;2023-08-06T05:41:52;15.60;99.90
10095;DHT22;5086;50.830;7.102;2023-08-06T05:44:20;15.70;99.90
10095;DHT22;5086;50.830;7.102;2023-08-06T05:46:47;15.70;99.90
10095;DHT22;5086;50.830;7.102;2023-08-06T05:49:14;15.90;99.90
10095;DHT22;5086;50.830;7.102;2023-08-06T05:51:39;15.90;99.90
10095;DHT22;5086;50.830;7.102;2023-08-06T05:54:08;16.00;99.90
10095;DHT22;5086;50.830;7.102;2023-08-06T05:56:34;16.10;99.90
10095;DHT22;5086;50.830;7.102;2023-08-06T05:59:01;16.10;99.90
10095;DHT22;5086;50.830;7.102;2023-08-06T06:01:28;16.10;99.90
10095;DHT22;5086;50.830;7.102;2023-08-06T06:03:55;16.10;99.90
10095;DHT22;5086;50.830;7.102;2023-08-06T06:06:21;16.10;99.90
10095;DHT22;5086;50.830;7.102;2023-08-06T06:08:48;16.10;99.90
10095;DHT22;5086;50.830;7.102;2023-08-06T06:11:16;16.00;99.90
10095;DHT22;5086;50.830;7.102;2023-08-06T06:13:47;16.00;99.90
10095;DHT22;5086;50.830;7.102;2023-08-06T06:16:14;15.90;99.90
10095;DHT22;5086;50.830;7.102;2023-08-06T06:18:40;15.90;99.90
10095;DHT22;5086;50.830;7.102;2023-08-06T06:21:07;16.00;99.90
10095;DHT22;5086;50.830;7.102;2023-08-06T06:23:34;16.00;99.90
10095;DHT22;5086;50.830;7.102;2023-08-06T06:26:01;16.10;99.90
10095;DHT22;5086;50.830;7.102;2023-08-06T06:28:29;16.10;99.90
10095;DHT22;5086;50.830;7.102;2023-08-06T06:31:00;16.10;99.90
10095;DHT22;5086;50.830;7.102;2023-08-06T06:33:27;16.10;99.90
10095;DHT22;5086;50.830;7.102;2023-08-06T06:35:54;16.10;99.90
10095;DHT22;5086;50.830;7.102;2023-08-06T06:38:21;16.00;99.90
10095;DHT22;5086;50.830;7.102;2023-08-06T06:40:54;16.00;99.90
10095;DHT22;5086;50.830;7.102;2023-08-06T06:43:21;15.90;99.90
10095;DHT22;5086;50.830;7.102;2023-08-06T06:45:52;16.00;99.90
10095;DHT22;5086;50.830;7.102;2023-08-06T06:48:19;15.90;99.90
10095;DHT22;5086;50.830;7.102;2023-08-06T06:50:47;15.90;99.90
10095;DHT22;5086;50.830;7.102;2023-08-06T06:53:14;15.90;99.90
10095;DHT22;5086;50.830;7.102;2023-08-06T06:55:40;15.90;99.90
10095;DHT22;5086;50.830;7.102;2023-08-06T06:58:07;15.90;99.90
10095;DHT22;5086;50.830;7.102;2023-08-06T07:00:35;15.90;99.90
10095;DHT22;5086;50.830;7.102;2023-08-06T07:03:03;16.00;99.90
10095;DHT22;5086;50.830;7.102;2023-08-06T07:05:30;16.00;99.90
10095;DHT22;5086;50.830;7.102;2023-08-06T07:07:57;15.90;99.90
10095;DHT22;5086;50.830;7.102;2023-08-06T07:10:25;15.90;99.90
10095;DHT22;5086;50.830;7.102;2023-08-06T07:12:51;15.80;99.90
10095;DHT22;5086;50.830;7.102;2023-08-06T07:15:18;15.80;99.90
10095;DHT22;5086;50.830;7.102;2023-08-06T07:17:45;15.90;99.90
10095;DHT22;5086;50.830;7.102;2023-08-06T07:20:13;16.00;99.90
10095;DHT22;5086;50.830;7.102;2023-08-06T07:22:40;15.90;99.90
10095;DHT22;5086;50.830;7.102;2023-08-06T07:25:07;15.90;99.90
10095;DHT22;5086;50.830;7.102;2023-08-06T07:27:34;15.90;99.90
10095;DHT22;5086;50.830;7.102;2023-08-06T07:30:01;16.00;99.90
10095;DHT22;5086;50.830;7.102;2023-08-06T07:32:28;16.00;99.90
10095;DHT22;5086;50.830;7.102;2023-08-06T07:34:55;16.00;99.90
10095;DHT22;5086;50.830;7.102;2023-08-06T07:37:26;15.90;99.90
10095;DHT22;5086;50.830;7.102;2023-08-06T07:39:54;16.00;99.90
10095;DHT22;5086;50.830;7.102;2023-08-06T07:42:20;16.00;99.90
10095;DHT22;5086;50.830;7.102;2023-08-06T07:44:51;16.10;99.90
10095;DHT22;5086;50.830;7.102;2023-08-06T07:47:18;16.10;99.90
10095;DHT22;5086;50.830;7.102;2023-08-06T07:49:45;16.20;99.90
10095;DHT22;5086;50.830;7.102;2023-08-06T07:52:12;16.20;99.90
10095;DHT22;5086;50.830;7.102;2023-08-06T07:54:40;16.20;99.90
10095;DHT22;5086;50.830;7.102;2023-08-06T07:57:07;16.30;99.90
10095;DHT22;5086;50.830;7.102;2023-08-06T07:59:33;16.40;99.90
10095;DHT22;5086;50.830;7.102;2023-08-06T08:02:01;16.40;99.90
10095;DHT22;5086;50.830;7.102;2023-08-06T08:04:28;16.50;99.90
10095;DHT22;5086;50.830;7.102;2023-08-06T08:06:54;16.40;99.90
10095;DHT22;5086;50.830;7.102;2023-08-06T08:09:21;16.50;99.90
10095;DHT22;5086;50.830;7.102;2023-08-06T08:11:49;16.60;99.90
10095;DHT22;5086;50.830;7.102;2023-08-06T08:14:17;16.70;99.90
10095;DHT22;5086;50.830;7.102;2023-08-06T08:16:44;16.70;99.90
10095;DHT22;5086;50.830;7.102;2023-08-06T08:19:11;16.80;99.90
10095;DHT22;5086;50.830;7.102;2023-08-06T08:21:38;16.70;99.90
10095;DHT22;5086;50.830;7.102;2023-08-06T08:24:05;16.80;99.90
10095;DHT22;5086;50.830;7.102;2023-08-06T08:26:32;16.80;99.90
10095;DHT22;5086;50.830;7.102;2023-08-06T08:29:00;16.90;99.90
10095;DHT22;5086;50.830;7.102;2023-08-06T08:31:27;16.90;99.90
10095;DHT22;5086;50.830;7.102;2023-08-06T08:33:55;16.90;99.90
10095;DHT22;5086;50.830;7.102;2023-08-06T08:36:22;16.90;99.90
10095;DHT22;5086;50.830;7.102;2023-08-06T08:38:48;16.80;99.90
10095;DHT22;5086;50.830;7.102;2023-08-06T08:41:20;16.80;99.90
10095;DHT22;5086;50.830;7.102;2023-08-06T08:43:48;16.80;99.90
10095;DHT22;5086;50.830;7.102;2023-08-06T08:46:19;16.80;99.90
10095;DHT22;5086;50.830;7.102;2023-08-06T08:48:46;16.90;99.90
10095;DHT22;5086;50.830;7.102;2023-08-06T08:51:13;16.90;99.90
10095;DHT22;5086;50.830;7.102;2023-08-06T08:53:42;16.90;99.90
10095;DHT22;5086;50.830;7.102;2023-08-06T08:56:11;16.80;99.90
10095;DHT22;5086;50.830;7.102;2023-08-06T08:58:39;16.90;99.90
10095;DHT22;5086;50.830;7.102;2023-08-06T09:01:06;16.90;99.90
10095;DHT22;5086;50.830;7.102;2023-08-06T09:03:36;16.80;99.90
10095;DHT22;5086;50.830;7.102;2023-08-06T09:06:04;16.80;99.90
10095;DHT22;5086;50.830;7.102;2023-08-06T09:08:35;16.80;99.90
10095;DHT22;5086;50.830;7.102;2023-08-06T09:11:03;16.80;99.90
10095;DHT22;5086;50.830;7.102;2023-08-06T09:13:31;16.80;99.90
10095;DHT22;5086;50.830;7.102;2023-08-06T09:15:57;16.70;99.90
10095;DHT22;5086;50.830;7.102;2023-08-06T09:18:28;16.80;99.90
10095;DHT22;5086;50.830;7.102;2023-08-06T09:20:58;16.80;99.90
10095;DHT22;5086;50.830;7.102;2023-08-06T09:23:28;16.80;99.90
10095;DHT22;5086;50.830;7.102;2023-08-06T09:25:56;16.70;99.90
10095;DHT22;5086;50.830;7.102;2023-08-06T09:28:23;16.80;99.90
10095;DHT22;5086;50.830;7.102;2023-08-06T09:30:50;16.80;99.90
10095;DHT22;5086;50.830;7.102;2023-08-06T09:33:22;16.90;99.90
10095;DHT22;5086;50.830;7.102;2023-08-06T09:35:49;16.90;99.90
10095;DHT22;5086;50.830;7.102;2023-08-06T09:38:17;16.80;99.90
10095;DHT22;5086;50.830;7.102;2023-08-06T09:40:44;16.90;99.90
10095;DHT22;5086;50.830;7.102;2023-08-06T09:43:11;16.90;99.90
10095;DHT22;5086;50.830;7.102;2023-08-06T09:45:39;17.10;99.90
10095;DHT22;5086;50.830;7.102;2023-08-06T09:48:07;17.30;99.90
10095;DHT22;5086;50.830;7.102;2023-08-06T09:50:35;17.60;99.90
10095;DHT22;5086;50.830;7.102;2023-08-06T09:53:04;17.70;99.90
10095;DHT22;5086;50.830;7.102;2023-08-06T09:55:33;17.50;99.90
10095;DHT22;5086;50.830;7.102;2023-08-06T09:58:00;17.30;99.90
10095;DHT22;5086;50.830;7.102;2023-08-06T10:00:28;17.10;99.90
10095;DHT22;5086;50.830;7.102;2023-08-06T10:03:00;16.80;99.90
10095;DHT22;5086;50.830;7.102;2023-08-06T10:05:27;16.60;99.90
10095;DHT22;5086;50.830;7.102;2023-08-06T10:07:55;16.60;99.90
10095;DHT22;5086;50.830;7.102;2023-08-06T10:10:23;16.70;99.90
10095;DHT22;5086;50.830;7.102;2023-08-06T10:12:55;16.90;99.90
10095;DHT22;5086;50.830;7.102;2023-08-06T10:15:26;16.90;99.90
10095;DHT22;5086;50.830;7.102;2023-08-06T10:17:57;16.90;99.90
10095;DHT22;5086;50.830;7.102;2023-08-06T10:20:24;16.80;99.90
10095;DHT22;5086;50.830;7.102;2023-08-06T10:23:01;16.70;99.90
10095;DHT22;5086;50.830;7.102;2023-08-06T10:25:34;16.60;99.90
10095;DHT22;5086;50.830;7.102;2023-08-06T10:28:07;16.40;99.90
10095;DHT22;5086;50.830;7.102;2023-08-06T10:30:41;16.30;99.90
10095;DHT22;5086;50.830;7.102;2023-08-06T10:33:08;16.00;99.90
10095;DHT22;5086;50.830;7.102;2023-08-06T10:35:36;15.80;99.90
10095;DHT22;5086;50.830;7.102;2023-08-06T10:38:05;15.60;99.90
10095;DHT22;5086;50.830;7.102;2023-08-06T10:40:36;15.40;99.90
10095;DHT22;5086;50.830;7.102;2023-08-06T10:43:05;15.30;99.90
10095;DHT22;5086;50.830;7.102;2023-08-06T10:45:37;15.30;99.90
10095;DHT22;5086;50.830;7.102;2023-08-06T10:48:05;15.20;99.90
10095;DHT22;5086;50.830;7.102;2023-08-06T10:50:32;15.30;99.90
10095;DHT22;5086;50.830;7.102;2023-08-06T10:53:05;15.30;99.90
10095;DHT22;5086;50.830;7.102;2023-08-06T10:55:34;15.20;99.90
10095;DHT22;5086;50.830;7.102;2023-08-06T10:58:05;15.20;99.90
10095;DHT22;5086;50.830;7.102;2023-08-06T11:00:33;15.10;99.90
10095;DHT22;5086;50.830;7.102;2023-08-06T11:03:03;15.20;99.90
10095;DHT22;5086;50.830;7.102;2023-08-06T11:05:30;15.20;99.90
10095;DHT22;5086;50.830;7.102;2023-08-06T11:07:57;15.20;99.90
10095;DHT22;5086;50.830;7.102;2023-08-06T11:10:24;15.20;99.90
10095;DHT22;5086;50.830;7.102;2023-08-06T11:12:51;15.20;99.90
10095;DHT22;5086;50.830;7.102;2023-08-06T11:15:22;15.20;99.90
10095;DHT22;5086;50.830;7.102;2023-08-06T11:17:50;15.20;99.90
10095;DHT22;5086;50.830;7.102;2023-08-06T11:20:17;15.10;99.90
10095;DHT22;5086;50.830;7.102;2023-08-06T11:22:47;15.20;99.90
10095;DHT22;5086;50.830;7.102;2023-08-06T11:25:14;15.10;99.90
10095;DHT22;5086;50.830;7.102;2023-08-06T11:27:40;15.00;99.90
10095;DHT22;5086;50.830;7.102;2023-08-06T11:30:11;15.00;99.90
10095;DHT22;5086;50.830;7.102;2023-08-06T11:32:47;14.90;99.90
10095;DHT22;5086;50.830;7.102;2023-08-06T11:35:15;14.80;99.90
10095;DHT22;5086;50.830;7.102;2023-08-06T11:37:44;14.80;99.90
10095;DHT22;5086;50.830;7.102;2023-08-06T11:40:11;14.80;99.90
10095;DHT22;5086;50.830;7.102;2023-08-06T11:42:38;14.80;99.90
10095;DHT22;5086;50.830;7.102;2023-08-06T11:45:06;14.90;99.90
10095;DHT22;5086;50.830;7.102;2023-08-06T11:47:38;14.90;99.90
10095;DHT22;5086;50.830;7.102;2023-08-06T11:50:08;15.00;99.90
10095;DHT22;5086;50.830;7.102;2023-08-06T11:52:39;15.00;99.90
10095;DHT22;5086;50.830;7.102;2023-08-06T11:55:08;15.00;99.90
10095;DHT22;5086;50.830;7.102;2023-08-06T11:57:37;15.10;99.90
10095;DHT22;5086;50.830;7.102;2023-08-06T12:00:06;15.20;99.90
10095;DHT22;5086;50.830;7.102;2023-08-06T12:02:34;15.20;99.90
10095;DHT22;5086;50.830;7.102;2023-08-06T12:05:04;15.30;99.90
10095;DHT22;5086;50.830;7.102;2023-08-06T12:07:40;15.30;99.90
10095;DHT22;5086;50.830;7.102;2023-08-06T12:10:07;15.40;99.90
10095;DHT22;5086;50.830;7.102;2023-08-06T12:12:34;15.40;99.90
10095;DHT22;5086;50.830;7.102;2023-08-06T12:15:03;15.40;99.90
10095;DHT22;5086;50.830;7.102;2023-08-06T12:17:30;15.40;99.90
10095;DHT22;5086;50.830;7.102;2023-08-06T12:19:57;15.50;99.90
10095;DHT22;5086;50.830;7.102;2023-08-06T12:22:24;15.50;99.90
10095;DHT22;5086;50.830;7.102;2023-08-06T12:25:15;15.40;99.90
10095;DHT22;5086;50.830;7.102;2023-08-06T12:27:46;15.50;99.90
10095;DHT22;5086;50.830;7.102;2023-08-06T12:30:14;15.50;99.90
10095;DHT22;5086;50.830;7.102;2023-08-06T12:32:42;15.50;99.90
10095;DHT22;5086;50.830;7.102;2023-08-06T12:35:09;15.50;99.90
10095;DHT22;5086;50.830;7.102;2023-08-06T12:37:36;15.60;99.90
10095;DHT22;5086;50.830;7.102;2023-08-06T12:40:04;15.50;99.90
10095;DHT22;5086;50.830;7.102;2023-08-06T12:42:33;15.50;99.90
10095;DHT22;5086;50.830;7.102;2023-08-06T12:45:00;15.50;99.90
10095;DHT22;5086;50.830;7.102;2023-08-06T12:47:26;15.40;99.90
10095;DHT22;5086;50.830;7.102;2023-08-06T12:49:53;15.50;99.90
10095;DHT22;5086;50.830;7.102;2023-08-06T12:52:20;15.50;99.90
10095;DHT22;5086;50.830;7.102;2023-08-06T12:54:47;15.50;99.90
10095;DHT22;5086;50.830;7.102;2023-08-06T12:57:14;15.40;99.90
10095;DHT22;5086;50.830;7.102;2023-08-06T12:59:42;15.40;99.90
10095;DHT22;5086;50.830;7.102;2023-08-06T13:02:09;15.40;99.90
10095;DHT22;5086;50.830;7.102;2023-08-06T13:04:36;15.40;99.90
10095;DHT22;5086;50.830;7.102;2023-08-06T13:07:03;15.40;99.90
10095;DHT22;5086;50.830;7.102;2023-08-06T13:09:31;15.30;99.90
10095;DHT22;5086;50.830;7.102;2023-08-06T13:11:59;15.30;99.90
10095;DHT22;5086;50.830;7.102;2023-08-06T13:14:30;15.30;99.90
10095;DHT22;5086;50.830;7.102;2023-08-06T13:17:02;15.30;99.90
10095;DHT22;5086;50.830;7.102;2023-08-06T13:19:32;15.30;99.90
10095;DHT22;5086;50.830;7.102;2023-08-06T13:22:12;15.30;99.90
10095;DHT22;5086;50.830;7.102;2023-08-06T13:24:39;15.20;99.90
10095;DHT22;5086;50.830;7.102;2023-08-06T13:27:06;15.20;99.90
10095;DHT22;5086;50.830;7.102;2023-08-06T13:29:35;15.10;99.90
10095;DHT22;5086;50.830;7.102;2023-08-06T13:32:04;15.10;99.90
10095;DHT22;5086;50.830;7.102;2023-08-06T13:34:30;15.20;99.90
10095;DHT22;5086;50.830;7.102;2023-08-06T13:36:57;15.20;99.90
10095;DHT22;5086;50.830;7.102;2023-08-06T13:39:24;15.10;99.90
10095;DHT22;5086;50.830;7.102;2023-08-06T13:41:51;15.20;99.90
10095;DHT22;5086;50.830;7.102;2023-08-06T13:44:18;15.20;99.90
10095;DHT22;5086;50.830;7.102;2023-08-06T13:46:44;15.10;99.90
10095;DHT22;5086;50.830;7.102;2023-08-06T13:49:13;15.10;99.90
10095;DHT22;5086;50.830;7.102;2023-08-06T13:51:40;15.10;99.90
10095;DHT22;5086;50.830;7.102;2023-08-06T13:54:07;15.10;99.90
10095;DHT22;5086;50.830;7.102;2023-08-06T13:56:34;15.30;99.90
10095;DHT22;5086;50.830;7.102;2023-08-06T13:59:03;15.30;99.90
10095;DHT22;5086;50.830;7.102;2023-08-06T14:01:30;15.30;99.90
10095;DHT22;5086;50.830;7.102;2023-08-06T14:03:57;15.30;99.90
10095;DHT22;5086;50.830;7.102;2023-08-06T14:06:25;15.20;99.90
10095;DHT22;5086;50.830;7.102;2023-08-06T14:08:52;15.30;99.90
10095;DHT22;5086;50.830;7.102;2023-08-06T14:11:19;15.30;99.90
10095;DHT22;5086;50.830;7.102;2023-08-06T14:13:46;15.30;99.90
10095;DHT22;5086;50.830;7.102;2023-08-06T14:16:13;15.40;99.90
10095;DHT22;5086;50.830;7.102;2023-08-06T14:18:40;15.40;99.90
10095;DHT22;5086;50.830;7.102;2023-08-06T14:21:07;15.30;99.90
10095;DHT22;5086;50.830;7.102;2023-08-06T14:23:35;15.30;99.90
10095;DHT22;5086;50.830;7.102;2023-08-06T14:26:02;15.30;99.90
10095;DHT22;5086;50.830;7.102;2023-08-06T14:28:29;15.20;99.90
10095;DHT22;5086;50.830;7.102;2023-08-06T14:30:56;15.20;99.90
10095;DHT22;5086;50.830;7.102;2023-08-06T14:33:23;15.20;99.90
10095;DHT22;5086;50.830;7.102;2023-08-06T14:35:50;15.40;99.90
10095;DHT22;5086;50.830;7.102;2023-08-06T14:38:17;15.40;99.90
10095;DHT22;5086;50.830;7.102;2023-08-06T14:40:45;15.40;99.90
10095;DHT22;5086;50.830;7.102;2023-08-06T14:43:18;15.60;99.90
10095;DHT22;5086;50.830;7.102;2023-08-06T14:45:45;15.70;99.90
10095;DHT22;5086;50.830;7.102;2023-08-06T14:48:12;15.90;99.90
10095;DHT22;5086;50.830;7.102;2023-08-06T14:50:39;15.90;99.90
10095;DHT22;5086;50.830;7.102;2023-08-06T14:53:06;16.00;99.90
10095;DHT22;5086;50.830;7.102;2023-08-06T14:55:33;15.90;99.90
10095;DHT22;5086;50.830;7.102;2023-08-06T14:58:02;15.90;99.90
10095;DHT22;5086;50.830;7.102;2023-08-06T15:00:29;15.80;99.90
10095;DHT22;5086;50.830;7.102;2023-08-06T15:02:56;15.60;99.90
10095;DHT22;5086;50.830;7.102;2023-08-06T15:05:24;15.60;99.90
10095;DHT22;5086;50.830;7.102;2023-08-06T15:07:51;15.50;99.90
10095;DHT22;5086;50.830;7.102;2023-08-06T15:10:19;15.50;99.90
10095;DHT22;5086;50.830;7.102;2023-08-06T15:12:49;15.50;99.90
10095;DHT22;5086;50.830;7.102;2023-08-06T15:15:18;15.60;99.90
10095;DHT22;5086;50.830;7.102;2023-08-06T15:17:49;15.60;99.90
10095;DHT22;5086;50.830;7.102;2023-08-06T15:20:16;15.70;99.90
10095;DHT22;5086;50.830;7.102;2023-08-06T15:22:43;15.80;99.90
10095;DHT22;5086;50.830;7.102;2023-08-06T15:25:10;15.80;99.90
10095;DHT22;5086;50.830;7.102;2023-08-06T15:27:37;15.80;99.90
10095;DHT22;5086;50.830;7.102;2023-08-06T15:30:06;15.80;99.90
10095;DHT22;5086;50.830;7.102;2023-08-06T15:32:34;15.80;99.90
10095;DHT22;5086;50.830;7.102;2023-08-06T15:35:01;15.80;99.90
10095;DHT22;5086;50.830;7.102;2023-08-06T15:37:29;15.80;99.90
10095;DHT22;5086;50.830;7.102;2023-08-06T15:39:57;15.80;99.90
10095;DHT22;5086;50.830;7.102;2023-08-06T15:42:24;15.90;99.90
10095;DHT22;5086;50.830;7.102;2023-08-06T15:44:50;15.90;99.90
10095;DHT22;5086;50.830;7.102;2023-08-06T15:47:17;16.00;99.90
10095;DHT22;5086;50.830;7.102;2023-08-06T15:49:46;15.90;99.90